Latest Weather Observations for Holsworthy

IDN60901

Issued at 8:05 am EDT Friday 24 October 2014 (issued every 10 minutes, with the page automatically refreshed every 10 minutes)

About weather observations | Map of Sydney area stations | Latest observations for Sydney area | Other Formats
Station Details ID: 066161 Name: HOLSWORTHY AERODROME AWS Lat: -33.99 Lon: 150.95 Height: 68.16 m
Data from the previous 72 hours. | See also: Recent months at Holsworthy
Date/Time
EDT
Tmp

°C
App
Tmp
°C
Dew
Point
°C
Rel
Hum
%
Delta-T

°C
Wind Press
QNH
hPa
Press
MSL
hPa
Rain
since
9 am
mm
Dir
 
Spd
km/h
Gust
km/h
Spd
kts
Gust
kts
24/08:00am 18.2 19.2 16.9 92 0.8 NW 7 11 4 6 1020.2 1020.1 0.0
24/07:30am 17.2 17.9 16.2 94 0.6 W 7 11 4 6 1020.4 1020.3 0.0
24/07:00am 17.3 18.0 16.2 93 0.7 WNW 7 9 4 5 1019.8 1019.7 0.0
24/06:30am 17.1 16.9 15.8 92 0.8 SW 11 15 6 8 1020.7 1020.6 0.0
24/06:00am 16.9 16.4 15.8 93 0.6 SE 13 13 7 7 1019.9 1019.8 0.0
24/05:30am 16.9 17.6 15.6 92 0.8 E 6 7 3 4 1019.8 1019.7 0.0
24/05:00am 17.1 17.2 15.6 91 0.9 SE 9 13 5 7 1020.1 1020.0 0.0
24/04:30am 17.1 17.2 15.6 91 0.9 NW 9 20 5 11 1020.1 1020.0 0.0
24/04:00am 17.1 17.5 15.3 89 1.0 N 7 17 4 9 1019.1 1018.9 0.0
24/03:40am 17.1 16.5 15.6 91 0.9 WSW 13 19 7 10 1020.4 1020.3 0.0
24/03:30am 17.0 15.3 15.7 92 0.8 WSW 19 32 10 17 1020.6 1020.5 0.0
24/03:20am 17.0 15.5 16.2 95 0.5 WSW 19 24 10 13 1020.5 1020.4 0.0
24/03:00am 16.9 17.5 15.9 94 0.6 WSW 7 11 4 6 1019.3 1019.2 0.0
24/02:30am 17.2 18.3 15.5 90 1.0 E 4 9 2 5 1019.3 1019.2 0.0
24/02:00am 18.2 17.9 16.5 90 1.0 ENE 13 19 7 10 1019.2 1019.0 0.0
24/01:30am 18.2 17.6 16.7 91 0.9 SSE 15 20 8 11 1020.8 1020.7 0.0
24/01:00am 18.1 17.6 16.8 92 0.8 SSE 15 20 8 11 1020.9 1020.8 0.0
24/12:30am 18.1 17.2 16.8 92 0.8 SE 17 22 9 12 1020.6 1020.5 0.0
24/12:00am 17.8 17.1 16.5 92 0.8 SSE 15 19 8 10 1020.9 1020.8 0.0
 
Date/Time
EDT
Tmp

°C
App
Tmp
°C
Dew
Point
°C
Rel
Hum
%
Delta-T

°C
Wind Press
QNH
hPa
Press
MSL
hPa
Rain
since
9 am
mm
Dir
 
Spd
km/h
Gust
km/h
Spd
kts
Gust
kts
23/11:30pm 17.6 18.3 16.1 91 0.9 S 7 7 4 4 1020.6 1020.5 0.0
23/11:00pm 17.7 18.1 16.2 91 0.9 S 9 13 5 7 1020.7 1020.6 0.0
23/10:30pm 17.7 18.0 16.0 90 1.0 S 9 11 5 6 1020.8 1020.7 0.0
23/10:00pm 18.3 19.3 16.3 88 1.2 SE 6 11 3 6 1020.5 1020.4 0.0
23/09:30pm 18.6 17.9 16.4 87 1.3 SE 15 19 8 10 1019.9 1019.8 0.0
23/09:00pm 18.6 18.4 15.8 84 1.7 SE 11 17 6 9 1019.8 1019.7 0.0
23/08:30pm 19.2 18.2 15.7 80 2.1 SE 15 20 8 11 1019.2 1019.0 0.0
23/08:00pm 19.8 19.9 15.4 76 2.6 SSE 9 13 5 7 1019.3 1019.2 0.0
23/07:30pm 20.2 20.9 16.0 77 2.5 SE 7 9 4 5 1019.0 1018.8 0.0
23/07:00pm 21.0 20.6 16.2 74 2.9 ESE 13 19 7 10 1018.3 1018.1 0.0
23/06:30pm 22.2 22.2 16.2 69 3.6 ESE 11 15 6 8 1018.0 1017.8 0.0
23/06:00pm 23.2 22.5 15.5 62 4.6 ESE 13 17 7 9 1017.6 1017.4 0.0
23/05:30pm 24.3 24.0 15.5 58 5.3 ENE 11 15 6 8 1017.1 1016.9 0.0
23/05:00pm 25.8 24.4 15.5 53 6.3 E 17 24 9 13 1016.7 1016.5 0.0
23/04:30pm 27.1 25.0 15.1 47 7.3 SE 20 28 11 15 1016.4 1016.2 0.0
23/04:00pm 26.8 23.7 13.5 44 7.9 ESE 22 32 12 17 1016.0 1015.8 0.0
23/03:30pm 27.9 24.7 13.1 40 8.7 SE 22 32 12 17 1015.8 1015.6 0.0
23/03:00pm 28.8 24.9 12.2 35 9.7 SE 24 35 13 19 1015.6 1015.4 0.0
23/02:30pm 30.1 26.3 12.5 34 10.4 ESE 24 32 13 17 1015.7 1015.5 0.0
23/02:00pm 30.0 27.1 12.4 34 10.4 E 19 30 10 16 1015.9 1015.7 0.0
23/01:30pm 30.4 28.6 14.5 38 9.7 E 17 32 9 17 1016.3 1016.1 0.0
23/01:00pm 30.4 29.5 13.7 36 10.0 E 11 15 6 8 1016.4 1016.2 0.0
23/12:30pm 29.8 29.2 13.5 36 9.8 E 9 17 5 9 1016.7 1016.5 0.0
23/12:00pm 28.8 27.8 13.5 39 9.1 S 11 20 6 11 1017.0 1016.8 0.0
23/11:30am 28.4 28.3 15.0 44 8.2 WSW 9 19 5 10 1017.3 1017.1 0.0
23/11:00am 26.5 25.9 14.6 48 7.1 W 11 15 6 8 1017.6 1017.4 0.0
23/10:30am 24.5 24.3 14.6 54 5.9 WNW 9 13 5 7 1017.9 1017.7 0.0
23/10:00am 22.8 22.5 14.4 59 4.9 W 9 13 5 7 1018.2 1018.0 0.0
23/09:30am 21.1 21.2 14.5 66 3.9 WNW 7 24 4 13 1018.2 1018.0 0.0
23/09:00am 19.2 18.6 13.6 70 3.2 WNW 9 13 5 7 1018.3 1018.1 0.0
23/08:30am 17.7 17.6 13.2 75 2.5 N 6 9 3 5 1018.2 1018.0 0.0
23/08:00am 15.4 15.0 12.3 82 1.7 W 6 7 3 4 1018.3 1018.1 0.0
23/07:30am 13.5 12.7 11.7 89 1.0 WSW 7 13 4 7 1018.5 1018.3 0.0
23/07:00am 12.3 11.4 11.5 95 0.4 W 7 9 4 5 1018.1 1017.9 0.0
23/06:30am 11.3 10.1 10.4 94 0.5 WSW 7 9 4 5 1018.0 1017.8 0.0
23/06:00am 11.8 11.8 11.0 95 0.4 SW 2 6 1 3 1017.7 1017.5 0.0
23/05:30am 11.4 10.5 10.6 95 0.4 WSW 6 7 3 4 1017.7 1017.5 0.0
23/05:00am 11.0 9.9 9.8 92 0.6 WSW 6 7 3 4 1017.6 1017.4 0.0
23/04:30am 11.5 10.5 10.2 92 0.7 SW 6 7 3 4 1017.7 1017.5 0.0
23/04:00am 11.7 11.8 10.3 91 0.7 CALM 0 0 0 0 1017.7 1017.5 0.0
23/03:30am 12.7 12.0 11.4 92 0.7 SW 6 7 3 4 1017.9 1017.7 0.0
23/03:00am 12.8 12.5 11.5 92 0.7 SW 4 7 2 4 1018.2 1018.0 0.0
23/02:30am 12.8 13.3 11.5 92 0.7 CALM 0 0 0 0 1018.4 1018.2 0.0
23/02:00am 13.3 13.8 11.7 90 0.9 CALM 0 2 0 1 1018.8 1018.6 0.0
23/01:30am 13.8 13.2 11.8 88 1.1 SE 6 7 3 4 1019.1 1018.9 0.0
23/01:00am 14.3 13.5 11.8 85 1.3 ESE 7 7 4 4 1019.5 1019.4 0.0
23/12:30am 14.8 14.1 12.1 84 1.5 ESE 7 7 4 4 1019.7 1019.6 0.0
23/12:00am 14.9 13.8 12.0 83 1.6 ESE 9 11 5 6 1020.0 1019.9 0.0
 
Date/Time
EDT
Tmp

°C
App
Tmp
°C
Dew
Point
°C
Rel
Hum
%
Delta-T

°C
Wind Press
QNH
hPa
Press
MSL
hPa
Rain
since
9 am
mm
Dir
 
Spd
km/h
Gust
km/h
Spd
kts
Gust
kts
22/11:30pm 15.2 14.1 12.1 82 1.7 ESE 9 11 5 6 1020.2 1020.1 0.0
22/11:00pm 15.7 14.6 12.1 79 2.0 ESE 9 9 5 5 1020.5 1020.4 0.0
22/10:30pm 16.0 15.5 12.0 77 2.2 E 6 7 3 4 1020.6 1020.5 0.0
22/10:00pm 16.8 16.1 11.9 73 2.7 ENE 7 7 4 4 1020.5 1020.4 0.0
22/09:30pm 17.0 16.3 11.9 72 2.8 NE 7 11 4 6 1020.4 1020.3 0.0
22/09:00pm 17.3 16.2 12.0 71 2.9 ENE 9 13 5 7 1020.4 1020.3 0.0
22/08:30pm 17.5 16.5 12.2 71 2.9 ENE 9 11 5 6 1020.1 1020.0 0.0
22/08:00pm 18.0 16.3 12.5 70 3.1 ENE 13 19 7 10 1020.0 1019.9 0.0
22/07:30pm 18.2 16.5 12.4 69 3.2 ENE 13 19 7 10 1020.0 1019.9 0.0
22/07:00pm 19.0 16.9 12.5 66 3.6 ENE 15 20 8 11 1019.8 1019.7 0.0
22/06:30pm 20.0 17.9 12.5 62 4.2 ENE 15 24 8 13 1019.8 1019.7 0.0
22/06:00pm 20.7 17.8 12.4 59 4.7 ENE 19 24 10 13 1019.8 1019.7 0.0
22/05:30pm 21.3 18.4 12.2 56 5.1 ENE 19 28 10 15 1019.9 1019.8 0.0
22/05:00pm 21.8 18.8 12.4 55 5.3 ENE 20 33 11 18 1020.0 1019.9 0.0
22/04:30pm 22.6 19.6 12.5 53 5.8 ENE 20 26 11 14 1020.1 1020.0 0.0
22/04:00pm 22.4 19.5 12.4 53 5.7 ENE 19 26 10 14 1020.4 1020.3 0.0
22/03:30pm 23.2 20.8 12.8 52 6.0 E 17 22 9 12 1020.8 1020.7 0.0
22/03:00pm 22.9 19.3 9.7 43 7.2 N 19 28 10 15 1021.3 1021.2 0.0
22/02:30pm 22.9 19.8 10.3 45 6.9 NE 17 26 9 14 1021.9 1021.8 0.0
22/02:00pm 22.2 18.9 9.7 45 6.7 NNE 17 24 9 13 1022.6 1022.5 0.0
22/01:30pm 22.5 20.3 10.9 48 6.4 NE 13 26 7 14 1023.2 1023.1 0.0
22/01:00pm 21.3 17.6 9.5 47 6.3 ENE 19 24 10 13 1023.7 1023.6 0.0
22/12:30pm 20.7 17.9 9.9 50 5.8 NNE 15 24 8 13 1024.6 1024.5 0.0
22/12:00pm 20.6 16.6 10.4 52 5.5 N 22 28 12 15 1025.3 1025.2 0.0
22/11:30am 20.6 16.8 9.8 50 5.8 N 20 26 11 14 1025.9 1025.8 0.0
22/11:00am 19.3 15.6 9.5 53 5.2 N 19 28 10 15 1026.2 1026.1 0.0
22/10:30am 19.2 15.1 8.5 50 5.6 NNE 20 28 11 15 1026.6 1026.5 0.0
22/10:00am 18.7 15.5 9.8 56 4.7 NNE 17 22 9 12 1026.8 1026.7 0.0
22/09:30am 17.8 14.2 8.4 54 4.8 N 17 22 9 12 1027.0 1026.9 0.0
22/09:00am 17.6 14.3 7.9 53 4.9 N 15 20 8 11 1027.1 1027.0 0.0
22/08:30am 16.9 15.0 9.1 60 4.1 NNW 9 13 5 7 1027.2 1027.1 0.0
22/08:00am 15.9 14.4 9.3 65 3.4 N 7 9 4 5 1027.3 1027.2 0.0
22/07:30am 14.8 15.2 11.2 79 1.9 CALM 0 0 0 0 1027.5 1027.4 0.0
22/07:00am 13.6 13.9 10.9 84 1.4 CALM 0 0 0 0 1027.5 1027.4 0.0
22/06:30am 13.3 12.4 10.8 85 1.3 ESE 6 7 3 4 1027.4 1027.3 0.0
22/06:00am 12.9 12.7 10.4 85 1.3 W 2 9 1 5 1027.3 1027.2 0.0
22/05:30am 13.2 13.4 10.4 83 1.5 CALM 0 0 0 0 1027.2 1027.1 0.0
22/05:00am 13.1 12.1 10.3 83 1.4 E 6 7 3 4 1027.2 1027.1 0.0
22/04:30am 12.9 13.0 10.1 83 1.4 CALM 0 0 0 0 1027.4 1027.3 0.0
22/04:00am 13.5 12.1 9.6 77 2.0 SE 7 9 4 5 1027.8 1027.7 0.0
22/03:30am 13.9 12.6 9.9 77 2.1 E 7 9 4 5 1028.1 1028.0 0.0
22/03:00am 13.9 12.7 9.7 76 2.2 ENE 6 7 3 4 1028.3 1028.2 0.0
22/02:30am 13.8 12.7 9.8 77 2.1 NNE 6 7 3 4 1028.8 1028.7 0.0
22/02:00am 13.5 13.6 10.3 81 1.7 CALM 0 0 0 0 1029.2 1029.1 0.0
22/01:30am 13.9 12.8 9.9 77 2.1 ENE 6 6 3 3 1029.6 1029.4 0.0
22/01:00am 14.2 12.8 9.6 74 2.4 ENE 7 15 4 8 1030.2 1030.0 0.0
22/12:30am 14.1 12.2 9.1 72 2.6 E 9 11 5 6 1030.6 1030.4 0.0
22/12:00am 14.9 13.5 8.8 67 3.1 NE 6 7 3 4 1030.9 1030.7 0.0
 
Date/Time
EDT
Tmp

°C
App
Tmp
°C
Dew
Point
°C
Rel
Hum
%
Delta-T

°C
Wind Press
QNH
hPa
Press
MSL
hPa
Rain
since
9 am
mm
Dir
 
Spd
km/h
Gust
km/h
Spd
kts
Gust
kts
21/11:30pm 15.1 13.6 9.2 68 3.0 NE 7 11 4 6 1031.1 1030.9 0.0
21/11:00pm 15.2 13.7 9.3 68 3.0 NE 7 13 4 7 1031.3 1031.1 0.0
21/10:30pm 15.3 13.9 9.4 68 3.1 NNE 7 15 4 8 1031.3 1031.1 0.0
21/10:00pm 15.4 14.2 9.5 68 3.0 NE 6 9 3 5 1031.4 1031.2 0.0
21/09:30pm 15.4 13.9 9.1 66 3.2 ENE 7 9 4 5 1031.4 1031.2 0.0
21/09:00pm 15.9 14.5 9.6 66 3.3 E 7 17 4 9 1031.3 1031.1 0.0
21/08:30pm 15.7 13.9 9.4 66 3.3 ENE 9 13 5 7 1031.1 1030.9 0.0
21/08:00pm 15.7 14.3 9.4 66 3.2 ENE 7 13 4 7 1030.8 1030.6 0.0
21/07:30pm 15.8 13.8 8.5 62 3.7 ENE 9 13 5 7 1030.5 1030.3 0.0
21/07:00pm 16.0 13.9 8.2 60 3.9 ENE 9 11 5 6 1030.4 1030.2 0.0
21/06:30pm 16.2 13.7 8.2 59 4.1 E 11 13 6 7 1030.3 1030.1 0.0
21/06:00pm 16.5 13.3 8.5 59 4.1 E 15 22 8 12 1030.2 1030.0 0.0
21/05:30pm 16.7 13.9 8.4 58 4.2 E 13 17 7 9 1030.2 1030.0 0.0
21/05:00pm 16.9 14.0 8.1 56 4.4 E 13 20 7 11 1030.2 1030.0 0.0
21/04:30pm 17.2 14.0 8.4 56 4.5 E 15 22 8 12 1030.1 1029.9 0.0
21/04:00pm 17.4 14.4 7.7 53 4.9 ESE 13 20 7 11 1030.2 1030.0 0.0
21/03:30pm 17.4 14.5 8.0 54 4.8 E 13 17 7 9 1030.4 1030.2 0.0
21/03:00pm 17.1 13.2 7.2 52 4.9 ESE 17 26 9 14 1030.7 1030.5 0.0
21/02:30pm 17.2 13.4 7.5 53 4.9 E 17 20 9 11 1031.1 1030.9 0.0
21/02:00pm 17.2 13.8 7.5 53 4.8 E 15 22 8 12 1031.6 1031.4 0.0
21/01:30pm 17.1 13.7 7.5 53 4.8 ENE 15 20 8 11 1032.0 1031.9 0.0
21/01:00pm 17.3 14.2 7.4 52 4.9 E 13 20 7 11 1032.3 1032.2 0.0
21/12:30pm 17.1 14.1 7.7 54 4.8 E 13 17 7 9 1032.5 1032.4 0.0
21/12:00pm 17.1 13.8 8.0 55 4.6 E 15 20 8 11 1032.8 1032.7 0.0
21/11:30am 16.9 13.9 7.5 54 4.7 E 13 19 7 10 1032.9 1032.8 0.0
21/11:00am 17.0 14.2 8.4 57 4.4 E 13 20 7 11 1033.0 1032.9 0.0
21/10:30am 17.0 13.8 8.4 57 4.4 ESE 15 20 8 11 1033.0 1032.9 0.0
21/10:00am 16.6 13.7 8.3 58 4.2 ENE 13 20 7 11 1033.1 1033.0 0.0
21/09:30am 16.5 13.9 9.4 63 3.7 ESE 13 17 7 9 1032.9 1032.8 0.0
21/09:00am 15.5 13.9 10.1 70 2.8 SSE 9 13 5 7 1032.8 1032.7 0.2
21/08:30am 14.8 13.1 10.0 73 2.5 SSE 9 13 5 7 1032.6 1032.5 0.2

Latest Capital City Observations: Canberra | Sydney | Melbourne | Brisbane | Adelaide | Perth | Hobart | Darwin

Other Formats:

Comma delimited format used in spreadsheet applications
http://www.bom.gov.au/fwo/IDN60901/IDN60901.95761.axf

JavaScript Object Notation format (JSON) in row-major order
http://www.bom.gov.au/fwo/IDN60901/IDN60901.95761.json